createdAt,value
2022-10-11T00:01:08.666Z,101861.25
2022-10-11T00:03:36.473Z,101870.91
2022-10-11T00:06:06.068Z,101862.13
2022-10-11T00:08:34.842Z,101864.78
2022-10-11T00:11:06.687Z,101849.88
2022-10-11T00:13:35.202Z,101846.34
2022-10-11T00:16:12.674Z,101838.44
2022-10-11T00:18:40.826Z,101837.56
2022-10-11T00:21:16.978Z,101835.00
2022-10-11T00:23:48.298Z,101827.16
2022-10-11T00:26:24.010Z,101829.75
2022-10-11T00:28:53.454Z,101830.66
2022-10-11T00:31:48.713Z,101820.09
2022-10-11T00:34:26.957Z,101819.22
2022-10-11T00:36:55.772Z,101820.94
2022-10-11T00:39:23.804Z,101817.44
2022-10-11T00:41:52.721Z,101809.56
2022-10-11T00:44:23.462Z,101817.44
2022-10-11T00:46:56.676Z,101809.63
2022-10-11T00:49:34.019Z,101811.31
2022-10-11T00:52:04.592Z,101797.41
2022-10-11T00:54:37.718Z,101803.53
2022-10-11T00:57:09.063Z,101796.53
2022-10-11T00:59:41.148Z,101800.06
2022-10-11T01:02:12.393Z,101802.66
2022-10-11T01:04:41.057Z,101798.28
2022-10-11T01:07:12.892Z,101808.81
2022-10-11T01:09:40.851Z,101805.31
2022-10-11T01:12:17.746Z,101802.69
2022-10-11T01:15:15.156Z,101805.31
2022-10-11T01:17:51.610Z,101798.28
2022-10-11T01:20:42.627Z,101802.69
2022-10-11T01:23:32.812Z,101791.31
2022-10-11T01:26:33.531Z,101797.44
2022-10-11T01:29:13.547Z,101794.84
2022-10-11T01:31:52.374Z,101794.81
2022-10-11T01:34:28.350Z,101792.19
2022-10-11T01:37:03.426Z,101801.81
2022-10-11T01:39:37.357Z,101802.69
2022-10-11T01:42:09.849Z,101805.34
2022-10-11T01:44:42.746Z,101801.81
2022-10-11T01:47:11.881Z,101800.91
2022-10-11T01:49:39.621Z,101800.94
2022-10-11T01:52:08.938Z,101807.94
2022-10-11T01:55:14.337Z,101807.09
2022-10-11T01:58:02.315Z,101811.44
2022-10-11T02:00:42.197Z,101814.97
2022-10-11T02:03:22.172Z,101813.19
2022-10-11T02:05:55.885Z,101816.72
2022-10-11T02:08:30.712Z,101821.94
2022-10-11T02:11:05.763Z,101818.47
2022-10-11T02:13:41.147Z,101823.72
2022-10-11T02:16:19.037Z,101811.41
2022-10-11T02:18:52.572Z,101806.16
2022-10-11T02:21:24.563Z,101815.81
2022-10-11T02:24:01.151Z,101813.22
2022-10-11T02:26:34.603Z,101816.72
2022-10-11T02:29:08.998Z,101811.47
2022-10-11T02:31:38.555Z,101814.09
2022-10-11T02:34:13.859Z,101819.28
2022-10-11T02:36:51.836Z,101813.16
2022-10-11T02:39:26.964Z,101811.38
2022-10-11T02:41:58.676Z,101820.13
2022-10-11T02:44:33.478Z,101812.19
2022-10-11T02:47:02.496Z,101812.22
2022-10-11T02:49:33.012Z,101820.00
2022-10-11T02:52:01.036Z,101827.75
2022-10-11T02:54:28.989Z,101798.91
2022-10-11T02:56:58.198Z,101801.63
2022-10-11T02:59:26.254Z,101798.91
2022-10-11T03:01:56.649Z,101784.94
2022-10-11T03:04:24.909Z,101783.31
2022-10-11T03:06:54.223Z,101787.78
2022-10-11T03:09:22.436Z,101783.31
2022-10-11T03:11:50.500Z,101819.94
2022-10-11T03:14:18.267Z,101826.81
2022-10-11T03:16:46.183Z,101833.81
2022-10-11T03:19:18.396Z,101832.03
2022-10-11T03:21:47.251Z,101833.84
2022-10-11T03:24:17.015Z,101833.81
2022-10-11T03:26:47.005Z,101838.19
2022-10-11T03:29:15.023Z,101838.94
2022-10-11T03:31:42.856Z,101848.72
2022-10-11T03:34:10.711Z,101840.78
2022-10-11T03:36:38.544Z,101844.38
2022-10-11T03:39:06.800Z,101849.75
2022-10-11T03:41:37.027Z,101851.44
2022-10-11T03:44:05.105Z,101853.16
2022-10-11T03:46:32.878Z,101855.88
2022-10-11T03:49:00.692Z,101860.28
2022-10-11T03:51:29.132Z,101869.13
2022-10-11T03:53:57.059Z,101871.78
2022-10-11T03:56:24.925Z,101882.25
2022-10-11T03:58:54.412Z,101874.22
2022-10-11T04:01:22.396Z,101886.38
2022-10-11T04:03:50.396Z,101887.25
2022-10-11T04:06:18.238Z,101888.16
2022-10-11T04:08:46.121Z,101894.47
2022-10-11T04:11:13.994Z,101877.69
2022-10-11T04:13:41.858Z,101873.28
2022-10-11T04:16:11.054Z,101874.19
2022-10-11T04:18:39.044Z,101877.84
2022-10-11T04:21:07.496Z,101881.25
2022-10-11T04:23:35.641Z,101873.38
2022-10-11T04:26:06.890Z,101886.53
2022-10-11T04:28:36.128Z,101898.75
2022-10-11T04:31:05.139Z,101897.03
2022-10-11T04:33:34.420Z,101903.25
2022-10-11T04:36:02.636Z,101905.94
2022-10-11T04:38:30.832Z,101902.25
2022-10-11T04:41:07.145Z,101898.63
2022-10-11T04:43:35.118Z,101897.69
2022-10-11T04:46:02.987Z,101898.59
2022-10-11T04:48:31.532Z,101910.16
2022-10-11T04:51:00.671Z,101907.53
2022-10-11T04:53:30.107Z,101917.84
2022-10-11T04:56:01.309Z,101922.13
2022-10-11T04:58:30.788Z,101922.22
2022-10-11T05:00:59.303Z,101925.75
2022-10-11T05:03:27.863Z,101932.97
2022-10-11T05:05:55.719Z,101940.94
2022-10-11T05:08:25.378Z,101926.94
2022-10-11T05:10:57.778Z,101929.59
2022-10-11T05:13:26.316Z,101932.22
2022-10-11T05:15:54.555Z,101937.41
2022-10-11T05:18:24.195Z,101935.69
2022-10-11T05:21:15.939Z,101942.75
2022-10-11T05:23:46.490Z,101942.75
2022-10-11T05:26:14.584Z,101946.31
2022-10-11T05:28:42.563Z,101948.06
2022-10-11T05:31:10.524Z,101954.19
2022-10-11T05:33:38.340Z,101955.97
2022-10-11T05:36:08.527Z,101962.09
2022-10-11T05:38:37.106Z,101964.72
2022-10-11T05:41:09.556Z,101965.56
2022-10-11T05:43:37.575Z,101969.13
2022-10-11T05:46:05.952Z,101967.38
2022-10-11T05:48:34.386Z,101967.38
2022-10-11T05:51:03.303Z,101960.38
2022-10-11T05:53:31.532Z,101959.50
2022-10-11T05:55:59.740Z,101958.59
2022-10-11T05:58:31.556Z,101966.50
2022-10-11T06:01:00.931Z,101970.88
2022-10-11T06:03:29.215Z,101967.34
2022-10-11T06:05:57.465Z,101969.97
2022-10-11T06:08:25.445Z,101981.38
2022-10-11T06:10:55.562Z,101984.88
2022-10-11T06:13:23.453Z,101976.09
2022-10-11T06:15:52.600Z,101985.69
2022-10-11T06:18:20.975Z,101986.59
2022-10-11T06:20:51.971Z,101994.53
2022-10-11T06:23:20.194Z,101981.41
2022-10-11T06:25:57.243Z,101992.78
2022-10-11T06:28:25.190Z,101991.91
2022-10-11T06:30:54.485Z,101986.66
2022-10-11T06:33:22.905Z,101998.94
2022-10-11T06:35:51.003Z,101992.78
2022-10-11T06:38:19.084Z,101998.06
2022-10-11T06:40:46.931Z,102004.16
2022-10-11T06:43:14.846Z,101998.91
2022-10-11T06:45:42.725Z,102005.94
2022-10-11T06:48:13.358Z,102007.66
2022-10-11T06:50:58.998Z,102018.22
2022-10-11T06:53:28.448Z,102012.09
2022-10-11T06:56:03.372Z,102014.72
2022-10-11T06:58:31.492Z,102020.84
2022-10-11T07:01:02.819Z,102015.56
2022-10-11T07:03:32.394Z,102023.44
2022-10-11T07:06:04.858Z,102030.44
2022-10-11T07:08:33.034Z,102021.66
2022-10-11T07:11:01.912Z,102030.44
2022-10-11T07:13:30.334Z,102030.44
2022-10-11T07:15:58.304Z,102025.97
2022-10-11T07:18:26.071Z,102025.09
2022-10-11T07:20:56.052Z,102030.28
2022-10-11T07:23:25.249Z,102036.44
2022-10-11T07:25:55.081Z,102038.94
2022-10-11T07:28:23.345Z,102044.09
2022-10-11T07:30:51.890Z,102044.00
2022-10-11T07:33:19.884Z,102037.84
2022-10-11T07:35:48.697Z,102040.31
2022-10-11T07:38:18.666Z,102037.56
2022-10-11T07:40:47.456Z,102041.72
2022-10-11T07:43:15.647Z,102048.28
2022-10-11T07:45:45.445Z,102047.41
2022-10-11T07:48:13.426Z,102049.16
2022-10-11T07:50:41.198Z,102050.75
2022-10-11T07:53:09.973Z,102045.44
2022-10-11T07:55:42.482Z,102042.66
2022-10-11T07:58:11.055Z,102034.91
2022-10-11T08:00:39.551Z,102035.44
2022-10-11T08:03:08.290Z,102029.44
2022-10-11T08:05:38.646Z,102038.81
2022-10-11T08:08:07.020Z,102042.94
2022-10-11T08:10:40.239Z,102049.91
2022-10-11T08:13:09.567Z,102036.50
2022-10-11T08:15:37.813Z,102007.72
2022-10-11T08:18:05.903Z,102001.31
2022-10-11T08:20:34.004Z,101990.19
2022-10-11T08:23:01.947Z,101978.56
2022-10-11T08:25:30.357Z,101951.78
2022-10-11T08:27:58.256Z,101931.22
2022-10-11T08:30:27.706Z,101917.28
2022-10-11T08:32:55.624Z,101901.41
2022-10-11T08:35:23.671Z,101862.69
2022-10-11T08:37:51.572Z,101839.66
2022-10-11T08:40:22.514Z,101817.19
2022-10-11T08:42:59.760Z,101789.88
2022-10-11T08:45:36.658Z,101752.22
2022-10-11T08:48:14.291Z,101711.47
2022-10-11T08:50:45.499Z,101698.78
2022-10-11T08:53:23.115Z,101680.63
2022-10-11T08:55:52.396Z,101666.06
2022-10-11T08:58:24.272Z,101687.00
2022-10-11T09:00:57.692Z,101722.56
2022-10-11T09:03:32.255Z,101730.50
2022-10-11T09:06:09.679Z,101732.88
2022-10-11T09:08:58.818Z,101765.94
2022-10-11T09:11:44.707Z,101788.31
2022-10-11T09:14:41.280Z,101844.19
2022-10-11T09:17:21.434Z,101939.50
2022-10-11T09:20:04.682Z,102011.38
2022-10-11T09:22:45.483Z,102050.50
2022-10-11T09:25:24.224Z,102086.56
2022-10-11T09:28:04.219Z,102120.97
2022-10-11T09:30:33.189Z,102183.19
2022-10-11T09:33:13.342Z,102338.69
2022-10-11T09:35:45.225Z,102395.31
2022-10-11T09:38:22.308Z,101056.69
2022-10-11T09:41:01.536Z,101232.44
2022-10-11T09:43:29.592Z,101280.16
2022-10-11T09:45:57.597Z,101348.84
2022-10-11T09:48:30.042Z,101329.09
2022-10-11T09:51:05.800Z,101380.53
2022-10-11T09:53:52.132Z,101396.41
2022-10-11T09:56:20.038Z,101513.78
2022-10-11T09:58:48.045Z,101697.41
2022-10-11T10:01:25.431Z,101959.47
2022-10-11T10:04:10.936Z,102508.97
2022-10-11T10:06:40.118Z,102181.88
2022-10-11T10:09:30.362Z,101900.28
2022-10-11T10:11:59.192Z,101874.06
2022-10-11T10:14:30.718Z,101757.13
2022-10-11T10:17:06.542Z,101652.66
2022-10-11T10:19:45.313Z,101682.19
2022-10-11T10:22:20.113Z,101698.47
2022-10-11T10:24:49.974Z,101698.91
2022-10-11T10:27:22.136Z,101707.75
2022-10-11T10:30:15.838Z,101639.22
2022-10-11T10:32:49.795Z,101663.97
2022-10-11T10:35:33.488Z,101642.63
2022-10-11T10:38:09.297Z,101614.88
2022-10-11T10:40:42.137Z,101610.91
2022-10-11T10:43:16.801Z,101622.75
2022-10-11T10:46:16.748Z,101661.72
2022-10-11T10:51:52.721Z,101608.06
2022-10-11T10:54:35.690Z,101576.47
2022-10-11T10:57:11.181Z,101610.41
2022-10-11T10:59:59.945Z,101547.66
2022-10-11T11:02:40.809Z,101588.03
2022-10-11T11:05:22.160Z,101580.41
2022-10-11T11:07:56.108Z,101579.38
2022-10-11T11:10:34.935Z,101565.28
2022-10-11T11:13:18.995Z,101557.25
2022-10-11T11:15:53.755Z,101560.16
2022-10-11T11:18:29.995Z,101567.63
2022-10-11T11:21:20.203Z,101613.06
2022-10-11T11:24:02.148Z,101643.88
2022-10-11T11:26:38.686Z,101610.09
2022-10-11T11:29:19.735Z,101617.72
2022-10-11T11:32:01.784Z,101664.53
2022-10-11T11:34:34.315Z,101639.69
2022-10-11T11:37:06.674Z,101580.19
2022-10-11T11:39:40.157Z,101582.47
2022-10-11T11:42:14.865Z,101522.50
2022-10-11T11:44:46.781Z,101600.81
2022-10-11T11:47:20.533Z,101558.38
2022-10-11T11:49:52.205Z,101430.63
2022-10-11T11:52:26.838Z,101448.78
2022-10-11T11:55:05.982Z,101437.00
2022-10-11T11:57:49.477Z,101443.38
2022-10-11T12:00:20.683Z,101384.38
2022-10-11T12:02:53.150Z,101431.00
2022-10-11T12:05:24.299Z,101440.28
2022-10-11T12:07:59.582Z,101417.91
2022-10-11T12:10:36.685Z,101378.41
2022-10-11T12:13:18.055Z,101372.41
2022-10-11T12:16:10.795Z,101375.41
2022-10-11T12:18:53.260Z,101374.75
2022-10-11T12:21:30.610Z,101393.41
2022-10-11T12:23:59.916Z,101384.34
2022-10-11T12:26:40.711Z,101365.31
2022-10-11T12:29:43.650Z,101336.41
2022-10-11T12:32:51.061Z,101222.53
2022-10-11T12:35:55.429Z,101279.22
2022-10-11T12:38:24.531Z,101268.34
2022-10-11T12:40:54.710Z,101216.53
2022-10-11T12:43:33.602Z,101125.69
2022-10-11T12:46:39.385Z,101085.59
2022-10-11T12:49:36.220Z,101134.03
2022-10-11T12:52:06.919Z,101167.53
2022-10-11T12:55:04.071Z,101165.91
2022-10-11T12:58:16.874Z,101100.91
2022-10-11T13:01:17.869Z,101065.38
2022-10-11T13:03:50.921Z,101113.22
2022-10-11T13:06:22.048Z,101122.66
2022-10-11T13:08:55.050Z,101111.13
2022-10-11T13:11:26.359Z,101077.09
2022-10-11T13:13:56.975Z,101045.53
2022-10-11T13:16:28.229Z,101115.75
2022-10-11T13:18:59.567Z,101066.63
2022-10-11T13:21:30.949Z,101076.91
2022-10-11T13:24:01.382Z,101049.94
2022-10-11T13:26:31.699Z,101029.22
2022-10-11T13:29:01.216Z,101066.88
2022-10-11T13:31:33.014Z,101063.97
2022-10-11T13:34:01.112Z,101109.25
2022-10-11T13:36:31.527Z,101096.16
2022-10-11T13:39:01.792Z,101144.28
2022-10-11T13:41:31.702Z,101119.97
2022-10-11T13:44:03.444Z,101197.41
2022-10-11T13:46:41.082Z,101090.47
2022-10-11T13:49:29.096Z,101066.34
2022-10-11T13:52:02.415Z,101018.03
2022-10-11T13:54:55.465Z,101117.22
2022-10-11T13:57:25.284Z,101040.25
2022-10-11T13:59:53.173Z,101066.50
2022-10-11T14:02:24.217Z,100971.84
2022-10-11T14:04:52.154Z,101075.22
2022-10-11T14:07:27.191Z,101072.66
2022-10-11T14:09:55.914Z,101048.22
2022-10-11T14:12:38.131Z,101097.13
2022-10-11T14:15:07.798Z,101006.66
2022-10-11T14:17:41.823Z,100998.94
2022-10-11T14:20:18.235Z,100964.09
2022-10-11T14:22:46.122Z,100974.81
2022-10-11T14:25:14.327Z,100982.53
2022-10-11T14:27:42.705Z,100819.19
2022-10-11T14:30:31.997Z,100845.06
2022-10-11T14:33:03.357Z,100858.84
2022-10-11T14:35:33.281Z,100910.97
2022-10-11T14:38:01.349Z,100931.09
2022-10-11T14:40:31.558Z,100996.69
2022-10-11T14:42:59.915Z,101055.13
2022-10-11T14:45:27.857Z,101088.66
2022-10-11T14:47:57.058Z,101115.03
2022-10-11T14:50:36.433Z,101114.78
2022-10-11T14:53:05.886Z,101213.97
2022-10-11T14:55:34.144Z,101232.91
2022-10-11T14:58:02.294Z,101252.34
2022-10-11T15:00:32.390Z,101332.50
2022-10-11T15:03:01.857Z,101358.03
2022-10-11T15:05:34.611Z,101344.34
2022-10-11T15:08:08.971Z,101371.25
2022-10-11T15:10:39.216Z,101334.34
2022-10-11T15:13:12.030Z,101334.03
2022-10-11T15:15:45.749Z,101337.31
2022-10-11T15:18:18.747Z,101302.38
2022-10-11T15:24:01.752Z,101331.69
2022-10-11T15:26:33.047Z,101331.91
2022-10-11T15:29:01.232Z,101341.22
2022-10-11T15:31:29.256Z,101338.16
2022-10-11T15:33:59.593Z,101351.28
2022-10-11T15:36:28.931Z,101349.59
2022-10-11T15:38:58.183Z,101347.06
2022-10-11T15:41:26.131Z,101342.97
2022-10-11T15:43:54.647Z,101344.19
2022-10-11T15:46:23.919Z,101345.91
2022-10-11T15:48:54.345Z,101355.66
2022-10-11T15:51:22.354Z,101355.22
2022-10-11T15:53:50.639Z,101363.75
2022-10-11T15:56:20.048Z,101358.09
2022-10-11T15:58:48.166Z,101352.91
2022-10-11T16:01:18.769Z,101343.84
2022-10-11T16:03:47.260Z,101341.25
2022-10-11T16:06:15.473Z,101344.25
2022-10-11T16:08:44.624Z,101314.25
2022-10-11T16:11:15.682Z,101389.81
2022-10-11T16:13:46.212Z,101432.50
2022-10-11T16:16:14.295Z,101524.69
2022-10-11T16:18:47.473Z,101702.34
2022-10-11T16:21:16.513Z,101989.84
2022-10-11T16:23:45.209Z,102068.78
2022-10-11T16:26:16.369Z,102000.53
2022-10-11T16:28:49.903Z,101513.31
2022-10-11T16:31:20.931Z,101345.19
2022-10-11T16:33:50.117Z,101959.13
2022-10-11T16:36:40.654Z,102091.44
2022-10-11T16:39:12.011Z,102046.00
2022-10-11T16:41:40.242Z,102090.66
2022-10-11T16:44:13.403Z,102105.38
2022-10-11T16:46:41.570Z,102115.50
2022-10-11T16:49:09.504Z,102115.69
2022-10-11T16:51:37.503Z,102141.47
2022-10-11T16:54:05.919Z,102143.56
2022-10-11T16:56:38.864Z,102155.22
2022-10-11T16:59:09.297Z,102154.75
2022-10-11T17:01:37.732Z,102145.31
2022-10-11T17:04:06.065Z,102163.81
2022-10-11T17:06:34.177Z,102158.44
2022-10-11T17:09:02.197Z,102143.72
2022-10-11T17:11:30.291Z,102153.59
2022-10-11T17:13:58.512Z,102146.56
2022-10-11T17:16:28.159Z,102151.88
2022-10-11T17:18:56.087Z,102159.94
2022-10-11T17:21:23.962Z,102180.06
2022-10-11T17:23:51.832Z,102174.56
2022-10-11T17:26:23.244Z,102183.28
2022-10-11T17:28:51.232Z,102184.34
2022-10-11T17:31:19.346Z,102187.00
2022-10-11T17:33:50.505Z,102180.97
2022-10-11T17:36:22.544Z,102168.59
2022-10-11T17:38:51.712Z,102151.88
2022-10-11T17:41:20.446Z,102127.41
2022-10-11T17:43:48.854Z,102115.09
2022-10-11T17:46:18.173Z,102103.97
2022-10-11T17:48:46.247Z,102117.22
2022-10-11T17:51:17.450Z,102197.25
2022-10-11T17:53:48.194Z,102193.06
2022-10-11T17:56:18.024Z,102185.28
2022-10-11T17:58:47.061Z,102188.69
2022-10-11T18:01:17.013Z,102182.53
2022-10-11T18:03:52.694Z,102168.59
2022-10-11T18:06:22.186Z,102186.09
2022-10-11T18:08:50.235Z,102201.81
2022-10-11T18:11:20.659Z,102212.53
2022-10-11T18:13:50.037Z,102214.34
2022-10-11T18:16:20.645Z,102232.91
2022-10-11T18:18:48.728Z,102230.38
2022-10-11T18:21:20.186Z,102242.75
2022-10-11T18:23:52.795Z,102249.78
2022-10-11T18:26:26.686Z,102257.69
2022-10-11T18:28:58.429Z,102268.09
2022-10-11T18:31:28.032Z,102273.41
2022-10-11T18:33:56.539Z,102263.72
2022-10-11T18:36:29.938Z,102267.13
2022-10-11T18:39:01.580Z,102256.66
2022-10-11T18:41:33.977Z,102264.66
2022-10-11T18:44:04.287Z,102251.59
2022-10-11T18:46:32.424Z,102255.97
2022-10-11T18:49:02.063Z,102255.06
2022-10-11T18:51:32.147Z,102255.88
2022-10-11T18:54:02.202Z,102251.50
2022-10-11T18:56:31.884Z,102243.63
2022-10-11T18:59:00.754Z,102248.94
2022-10-11T19:01:31.170Z,102253.34
2022-10-11T19:04:02.477Z,102245.38
2022-10-11T19:06:33.522Z,102249.72
2022-10-11T19:09:05.583Z,102240.13
2022-10-11T19:11:33.841Z,102237.47
2022-10-11T19:14:03.820Z,102245.44
2022-10-11T19:16:31.801Z,102236.69
2022-10-11T19:18:59.694Z,102236.66
2022-10-11T19:21:28.459Z,102245.44
2022-10-11T19:23:57.136Z,102234.88
2022-10-11T19:26:29.115Z,102240.16
2022-10-11T19:28:58.521Z,102240.13
2022-10-11T19:31:26.783Z,102243.69
2022-10-11T19:33:54.749Z,102239.28
2022-10-11T19:36:23.015Z,102238.44
2022-10-11T19:38:54.552Z,102234.06
2022-10-11T19:41:22.436Z,102237.56
2022-10-11T19:43:52.477Z,102234.03
2022-10-11T19:46:44.401Z,102234.88
2022-10-11T19:49:12.062Z,102235.72
2022-10-11T19:51:39.907Z,102234.03
2022-10-11T19:54:11.756Z,102234.94
2022-10-11T19:56:40.694Z,102224.41
2022-10-11T19:59:12.053Z,102227.03
2022-10-11T20:01:49.346Z,102239.31
2022-10-11T20:04:50.605Z,102227.91
2022-10-11T20:07:08.525Z,102219.09
2022-10-11T20:09:36.837Z,102229.66
2022-10-11T20:12:04.863Z,102218.25
2022-10-11T20:14:34.323Z,102234.06
2022-10-11T20:17:02.155Z,102212.97
2022-10-11T20:19:31.600Z,102220.88
2022-10-11T20:22:00.469Z,102225.25
2022-10-11T20:24:32.581Z,102222.63
2022-10-11T20:27:01.898Z,102219.97
2022-10-11T20:29:29.987Z,102218.22
2022-10-11T20:31:59.834Z,102228.75
2022-10-11T20:34:28.262Z,102225.22
2022-10-11T20:36:56.333Z,102225.97
2022-10-11T20:39:24.737Z,102222.44
2022-10-11T20:41:52.698Z,102226.91
2022-10-11T20:44:20.632Z,102226.00
2022-10-11T20:46:48.644Z,102230.47
2022-10-11T20:49:20.680Z,102231.38
2022-10-11T20:51:48.659Z,102221.72
2022-10-11T20:54:16.737Z,102228.75
2022-10-11T20:56:44.734Z,102218.19
2022-10-11T20:59:13.857Z,102225.25
2022-10-11T21:01:42.514Z,102226.13
2022-10-11T21:04:18.309Z,102219.09
2022-10-11T21:06:48.239Z,102214.69
2022-10-11T21:09:17.484Z,102226.06
2022-10-11T21:11:46.851Z,102222.59
2022-10-11T21:14:17.214Z,102233.97
2022-10-11T21:16:45.271Z,102228.63
2022-10-11T21:19:17.115Z,102227.75
2022-10-11T21:21:53.651Z,102225.16
2022-10-11T21:24:22.547Z,102226.03
2022-10-11T21:27:00.457Z,102226.84
2022-10-11T21:29:28.902Z,102227.75
2022-10-11T21:31:56.842Z,102235.66
2022-10-11T21:34:24.767Z,102229.50
2022-10-11T21:36:54.110Z,102227.72
2022-10-11T21:39:22.171Z,102232.97
2022-10-11T21:41:49.991Z,102239.97
2022-10-11T21:44:17.949Z,102229.47
2022-10-11T21:47:06.016Z,102239.16
2022-10-11T21:49:33.820Z,102227.66
2022-10-11T21:52:06.655Z,102226.78
2022-10-11T21:54:34.656Z,102225.94
2022-10-11T21:57:02.975Z,102226.72
2022-10-11T21:59:31.070Z,102223.22
2022-10-11T22:02:02.219Z,102220.38
2022-10-11T22:04:30.519Z,102224.59
2022-10-11T22:06:58.604Z,102218.53
2022-10-11T22:09:29.871Z,102221.25
2022-10-11T22:11:58.164Z,102225.78
2022-10-11T22:14:26.121Z,102226.63
2022-10-11T22:16:53.940Z,102217.84
2022-10-11T22:19:22.123Z,102218.75
2022-10-11T22:21:50.339Z,102228.44
2022-10-11T22:24:19.401Z,102230.22
2022-10-11T22:26:48.628Z,102213.56
2022-10-11T22:29:16.563Z,102221.41
2022-10-11T22:31:44.375Z,102218.81
2022-10-11T22:34:13.019Z,102225.63
2022-10-11T22:36:41.125Z,102225.63
2022-10-11T22:39:10.191Z,102230.69
2022-10-11T22:41:38.460Z,102226.03
2022-10-11T22:44:08.006Z,102223.19
2022-10-11T22:46:35.860Z,102229.44
2022-10-11T22:49:03.854Z,102233.97
2022-10-11T22:51:32.028Z,102228.41
2022-10-11T22:54:02.102Z,102216.16
2022-10-11T22:56:32.025Z,102233.09
2022-10-11T22:59:00.585Z,102230.44
2022-10-11T23:01:30.839Z,102231.34
2022-10-11T23:03:58.909Z,102219.91
2022-10-11T23:06:26.801Z,102232.06
2022-10-11T23:08:54.583Z,102225.25
2022-10-11T23:11:22.840Z,102231.19
2022-10-11T23:13:51.820Z,102231.97
2022-10-11T23:16:19.634Z,102229.19
2022-10-11T23:18:48.943Z,102243.94
2022-10-11T23:21:16.824Z,102244.06
2022-10-11T23:23:47.176Z,102239.00
2022-10-11T23:26:17.074Z,102234.78
2022-10-11T23:28:45.518Z,102227.88
2022-10-11T23:31:16.562Z,102232.47
2022-10-11T23:33:45.056Z,102224.88
2022-10-11T23:36:17.196Z,102229.38
2022-10-11T23:38:45.302Z,102219.78
2022-10-11T23:41:13.689Z,102225.97
2022-10-11T23:43:41.647Z,102228.56
2022-10-11T23:46:12.525Z,102208.41
2022-10-11T23:48:41.386Z,102214.47
2022-10-11T23:51:09.324Z,102217.03
2022-10-11T23:53:38.832Z,102218.81
2022-10-11T23:56:08.611Z,102210.06
2022-10-11T23:58:36.561Z,102210.81
